Time;durP1;ratioP1;P1;durP2;ratioP2;P2;SDS_P1;SDS_P2;PMS_P1;PMS_P2;Temp;Humidity;BMP_temperature;BMP_pressure;BME280_temperature;BME280_humidity;BME280_pressure;Samples;Min_cycle;Max_cycle;Signal;HPM_P1;HPM_P2
2023/05/31 00:01:35;;;;;;;39.83;7.37;;;21.20;51.20;;;;;;5012622;28;20201;-86
2023/05/31 00:04:02;;;;;;;35.50;7.23;;;21.20;51.20;;;;;;5011368;28;20202;-87
2023/05/31 00:06:30;;;;;;;35.73;7.07;;;21.20;51.20;;;;;;5011299;28;20260;-87
2023/05/31 00:08:57;;;;;;;46.33;7.77;;;21.20;51.30;;;;;;5009664;28;20232;-87
2023/05/31 00:11:26;;;;;;;31.17;6.47;;;21.10;51.10;;;;;;5012680;28;20203;-86
2023/05/31 00:13:53;;;;;;;35.70;6.83;;;21.10;51.10;;;;;;5012329;28;20204;-86
2023/05/31 00:16:20;;;;;;;28.03;6.27;;;21.10;51.10;;;;;;5016649;28;20220;-88
2023/05/31 00:18:49;;;;;;;32.23;6.60;;;21.10;51.20;;;;;;5019857;28;20316;-87
2023/05/31 00:21:17;;;;;;;26.77;6.20;;;21.10;51.20;;;;;;5024137;28;20198;-88
2023/05/31 00:23:46;;;;;;;42.97;8.07;;;21.10;51.20;;;;;;5026008;28;20245;-86
2023/05/31 00:26:16;;;;;;;36.40;6.50;;;21.00;51.10;;;;;;5021130;28;20194;-87
2023/05/31 00:28:47;;;;;;;30.43;6.47;;;21.00;51.10;;;;;;5022311;28;20197;-87
2023/05/31 00:31:14;;;;;;;35.77;6.83;;;21.00;51.10;;;;;;5013036;28;20781;-87
2023/05/31 00:33:43;;;;;;;41.33;7.13;;;21.00;51.10;;;;;;5010577;28;20220;-87
2023/05/31 00:36:10;;;;;;;33.77;6.77;;;21.00;51.10;;;;;;5011173;28;20213;-86
2023/05/31 00:38:38;;;;;;;23.20;6.27;;;21.00;51.10;;;;;;5010368;28;20221;-87
2023/05/31 00:41:05;;;;;;;39.33;7.10;;;21.00;51.20;;;;;;5011690;28;20653;-87
2023/05/31 00:43:32;;;;;;;29.57;6.23;;;20.90;51.10;;;;;;5016820;28;20251;-87
2023/05/31 00:46:06;;;;;;;30.00;5.93;;;20.90;51.10;;;;;;5015973;28;20229;-86
2023/05/31 00:48:34;;;;;;;32.03;6.60;;;20.90;51.10;;;;;;5013033;28;20190;-86
2023/05/31 00:51:01;;;;;;;38.17;7.07;;;20.90;51.10;;;;;;5010036;28;20567;-87
2023/05/31 00:53:29;;;;;;;28.30;6.87;;;20.90;51.20;;;;;;5010200;28;20194;-86
2023/05/31 00:55:56;;;;;;;40.23;7.37;;;20.90;51.10;;;;;;5010108;28;20198;-87
2023/05/31 00:58:25;;;;;;;29.77;6.60;;;20.90;51.20;;;;;;5010558;28;20233;-87
2023/05/31 01:00:52;;;;;;;42.00;7.50;;;20.90;51.10;;;;;;5007733;28;20407;-87
2023/05/31 01:03:24;;;;;;;24.57;6.13;;;20.80;51.10;;;;;;5008963;28;20282;-87
2023/05/31 01:05:52;;;;;;;25.63;6.10;;;20.80;51.00;;;;;;5008686;28;20225;-87
2023/05/31 01:08:22;;;;;;;35.13;6.90;;;20.80;51.00;;;;;;5009843;28;20200;-87
2023/05/31 01:10:52;;;;;;;38.33;7.17;;;20.80;51.10;;;;;;5010667;28;20208;-87
2023/05/31 01:13:26;;;;;;;32.83;7.03;;;20.80;51.10;;;;;;4992708;28;20582;-87
2023/05/31 01:15:59;;;;;;;33.73;6.53;;;20.80;51.10;;;;;;5009107;28;20221;-88
2023/05/31 01:18:32;;;;;;;28.83;6.77;;;20.80;51.00;;;;;;5012367;28;20287;-89
2023/05/31 01:21:03;;;;;;;59.77;8.77;;;20.80;51.10;;;;;;5013849;28;20201;-88
2023/05/31 01:23:40;;;;;;;29.00;6.47;;;20.80;51.10;;;;;;5014899;28;20202;-86
2023/05/31 01:26:29;;;;;;;38.37;7.43;;;20.70;51.10;;;;;;5014557;28;20194;-86
2023/05/31 01:29:01;;;;;;;30.70;6.83;;;20.80;51.10;;;;;;5013278;28;20212;-86
2023/05/31 01:31:34;;;;;;;20.73;5.50;;;20.70;51.10;;;;;;5011817;28;20203;-86
2023/05/31 01:34:02;;;;;;;34.10;6.50;;;20.70;51.10;;;;;;5027027;28;20300;-87
2023/05/31 01:36:30;;;;;;;32.10;6.77;;;20.70;51.20;;;;;;5026607;28;20264;-88
2023/05/31 01:38:57;;;;;;;37.40;7.13;;;20.70;51.20;;;;;;5024398;28;20217;-91
2023/05/31 01:41:29;;;;;;;30.97;6.57;;;20.70;51.10;;;;;;5023012;28;20200;-90
2023/05/31 01:43:57;;;;;;;34.47;7.20;;;20.70;51.10;;;;;;5023458;28;20237;-91
2023/05/31 01:46:26;;;;;;;31.93;6.77;;;20.60;51.10;;;;;;5029774;28;20312;-88
2023/05/31 01:48:53;;;;;;;24.23;6.17;;;20.60;51.00;;;;;;5021819;28;20240;-87
2023/05/31 01:51:24;;;;;;;30.00;6.07;;;20.60;51.10;;;;;;5015102;28;20212;-87
2023/05/31 01:53:53;;;;;;;25.07;6.63;;;20.60;51.10;;;;;;5020617;28;20210;-87
2023/05/31 01:56:25;;;;;;;33.83;6.40;;;20.60;51.10;;;;;;5021237;28;20823;-87
2023/05/31 01:58:56;;;;;;;25.50;6.57;;;20.60;51.10;;;;;;5013653;28;20741;-87
2023/05/31 02:01:26;;;;;;;28.40;6.27;;;20.50;51.40;;;;;;5030722;28;20225;-86
2023/05/31 02:03:53;;;;;;;33.77;7.20;;;20.50;51.00;;;;;;5020614;28;20193;-86
2023/05/31 02:06:20;;;;;;;31.17;7.17;;;20.50;51.00;;;;;;5013584;28;20205;-87
2023/05/31 02:08:50;;;;;;;24.67;6.10;;;20.50;51.10;;;;;;5015471;28;20221;-87
2023/05/31 02:11:20;;;;;;;24.43;6.20;;;20.50;51.00;;;;;;5036666;28;20260;-87
2023/05/31 02:13:49;;;;;;;32.97;6.93;;;20.50;51.10;;;;;;5031760;28;20225;-86
2023/05/31 02:16:24;;;;;;;27.10;6.50;;;20.50;51.10;;;;;;5034515;28;20227;-87
2023/05/31 02:18:58;;;;;;;49.53;8.23;;;20.40;51.00;;;;;;5032150;28;20861;-87
2023/05/31 02:21:26;;;;;;;29.90;6.73;;;20.50;51.70;;;;;;5032737;28;20212;-87
2023/05/31 02:24:01;;;;;;;22.73;6.30;;;20.40;51.00;;;;;;5033659;28;20717;-87
2023/05/31 02:26:39;;;;;;;28.67;6.73;;;20.40;51.10;;;;;;5034291;28;20213;-86
2023/05/31 02:29:06;;;;;;;31.67;7.13;;;20.40;51.00;;;;;;5012180;28;20206;-87
2023/05/31 02:31:34;;;;;;;19.63;6.33;;;20.40;51.10;;;;;;5010023;28;20469;-86
2023/05/31 02:34:02;;;;;;;33.23;7.23;;;20.40;51.00;;;;;;5003350;28;20207;-87
2023/05/31 02:36:31;;;;;;;29.00;6.20;;;20.40;51.10;;;;;;5015573;28;20238;-87
2023/05/31 02:39:00;;;;;;;32.70;7.27;;;20.40;51.10;;;;;;5012185;28;20213;-87
2023/05/31 02:41:27;;;;;;;31.43;6.87;;;20.30;51.10;;;;;;5012130;28;20198;-87
2023/05/31 02:43:55;;;;;;;29.33;6.60;;;20.30;51.00;;;;;;5012484;28;20241;-87
2023/05/31 02:46:29;;;;;;;37.73;8.00;;;20.30;51.10;;;;;;5012296;28;20233;-87
2023/05/31 02:48:57;;;;;;;54.93;9.07;;;20.30;51.10;;;;;;5010491;28;20577;-87
2023/05/31 02:51:24;;;;;;;41.90;8.07;;;20.30;51.10;;;;;;5007987;28;20284;-87
2023/05/31 02:53:54;;;;;;;29.83;7.10;;;20.30;51.10;;;;;;5011285;28;20292;-86
2023/05/31 02:56:21;;;;;;;34.37;7.37;;;20.30;51.10;;;;;;5013110;28;20245;-86
2023/05/31 02:58:48;;;;;;;33.03;7.07;;;20.30;51.10;;;;;;5011632;28;20213;-87
2023/05/31 03:01:15;;;;;;;32.47;7.13;;;20.30;51.10;;;;;;5011555;28;20392;-87
2023/05/31 03:03:44;;;;;;;25.97;6.67;;;20.30;51.10;;;;;;5014524;28;20193;-87
2023/05/31 03:06:16;;;;;;;37.83;7.47;;;20.30;51.40;;;;;;5014549;28;20605;-87
2023/05/31 03:08:43;;;;;;;30.43;7.13;;;20.20;51.00;;;;;;5011146;28;20263;-87
2023/05/31 03:11:10;;;;;;;29.70;6.77;;;20.20;51.10;;;;;;5011797;28;20204;-87
2023/05/31 03:13:37;;;;;;;33.20;6.83;;;20.20;51.10;;;;;;5011225;28;20301;-87
2023/05/31 03:16:05;;;;;;;36.97;7.93;;;20.20;51.10;;;;;;5010288;28;20231;-87
2023/05/31 03:18:32;;;;;;;34.97;6.80;;;20.20;51.10;;;;;;5010879;28;20275;-87
2023/05/31 03:20:59;;;;;;;51.63;8.67;;;20.20;51.10;;;;;;5009874;28;20200;-87
2023/05/31 03:23:27;;;;;;;33.67;6.87;;;20.20;51.10;;;;;;5011979;28;20227;-87
2023/05/31 03:25:54;;;;;;;33.90;6.87;;;20.20;51.10;;;;;;5011346;28;20669;-87
2023/05/31 03:28:21;;;;;;;32.83;7.10;;;20.20;51.20;;;;;;5011605;28;20199;-87
2023/05/31 03:30:51;;;;;;;28.83;7.07;;;20.20;51.10;;;;;;5011527;28;20213;-87
2023/05/31 03:33:19;;;;;;;27.63;7.00;;;20.10;51.10;;;;;;5011703;28;20610;-87
2023/05/31 03:35:49;;;;;;;28.57;6.50;;;20.10;51.10;;;;;;5010827;28;20205;-87
2023/05/31 03:38:16;;;;;;;34.50;7.20;;;20.10;51.10;;;;;;5011219;28;20283;-87
2023/05/31 03:40:45;;;;;;;38.87;7.50;;;20.10;51.10;;;;;;5010716;28;20697;-87
2023/05/31 03:43:13;;;;;;;27.70;6.57;;;20.10;51.10;;;;;;5014753;28;20252;-87
2023/05/31 03:45:40;;;;;;;36.57;6.97;;;20.10;51.10;;;;;;5022629;28;20241;-87
2023/05/31 03:48:07;;;;;;;40.03;7.73;;;20.10;51.20;;;;;;5012282;28;20567;-87
2023/05/31 03:50:40;;;;;;;30.50;6.80;;;20.00;51.20;;;;;;5016874;28;20269;-86
2023/05/31 03:53:07;;;;;;;28.47;6.70;;;20.10;51.30;;;;;;5013397;28;20205;-87
2023/05/31 03:55:34;;;;;;;42.87;7.97;;;20.00;51.20;;;;;;5011457;28;20205;-86
2023/05/31 03:58:03;;;;;;;32.23;7.37;;;20.00;51.20;;;;;;5011218;28;20209;-87
2023/05/31 04:00:30;;;;;;;58.60;9.07;;;20.00;51.20;;;;;;5011863;28;20237;-87
2023/05/31 04:02:59;;;;;;;33.00;7.27;;;20.00;51.30;;;;;;5010341;28;20209;-86
2023/05/31 04:05:26;;;;;;;33.87;6.97;;;20.00;51.20;;;;;;5010016;28;20296;-88
2023/05/31 04:07:53;;;;;;;25.30;6.53;;;20.00;51.20;;;;;;5010225;28;20200;-87
2023/05/31 04:10:20;;;;;;;28.73;6.97;;;20.00;51.30;;;;;;5011065;28;20193;-87
2023/05/31 04:12:47;;;;;;;28.07;7.17;;;20.00;51.20;;;;;;5009667;28;20437;-87
2023/05/31 04:15:16;;;;;;;31.00;7.23;;;20.00;51.30;;;;;;5010233;28;20213;-87
2023/05/31 04:17:43;;;;;;;39.60;8.10;;;20.00;51.20;;;;;;5016360;28;20205;-87
2023/05/31 04:20:13;;;;;;;31.30;6.97;;;19.90;51.10;;;;;;5013972;28;20233;-87
2023/05/31 04:22:40;;;;;;;35.63;7.43;;;19.80;51.10;;;;;;5010806;28;20758;-87
2023/05/31 04:25:09;;;;;;;31.53;6.73;;;19.90;51.20;;;;;;5011693;28;20216;-88
2023/05/31 04:27:40;;;;;;;43.47;7.83;;;19.90;51.20;;;;;;5010536;28;20208;-88
2023/05/31 04:30:08;;;;;;;33.23;7.07;;;19.90;51.20;;;;;;5011538;28;20241;-87
2023/05/31 04:32:36;;;;;;;28.63;6.63;;;19.90;51.20;;;;;;5011478;28;20212;-87
2023/05/31 04:35:07;;;;;;;34.37;7.03;;;19.90;51.30;;;;;;5012117;28;20205;-87
2023/05/31 04:37:36;;;;;;;25.20;6.80;;;19.90;51.30;;;;;;5015935;28;20264;-87
2023/05/31 04:40:05;;;;;;;34.03;7.13;;;19.90;51.30;;;;;;5012800;28;20243;-87
2023/05/31 04:42:35;;;;;;;32.77;6.70;;;19.90;51.20;;;;;;5017284;28;20691;-87
2023/05/31 04:45:04;;;;;;;35.53;7.03;;;19.80;51.20;;;;;;5010613;28;20205;-87
2023/05/31 04:47:31;;;;;;;26.00;6.57;;;19.90;51.20;;;;;;5016953;28;20205;-86
2023/05/31 04:50:02;;;;;;;28.67;6.43;;;19.80;51.20;;;;;;5018111;28;20201;-86
2023/05/31 04:52:32;;;;;;;27.80;6.43;;;19.80;51.20;;;;;;5011421;28;20209;-86
2023/05/31 04:55:01;;;;;;;29.07;6.23;;;19.80;51.20;;;;;;5011309;28;20216;-86
2023/05/31 04:57:30;;;;;;;25.43;6.07;;;19.80;51.20;;;;;;5017827;28;20233;-86
2023/05/31 04:59:57;;;;;;;32.40;7.17;;;19.80;51.20;;;;;;5016822;28;20241;-86
2023/05/31 05:02:30;;;;;;;26.23;6.80;;;19.80;51.30;;;;;;5010985;28;20197;-86
2023/05/31 05:04:58;;;;;;;21.73;6.53;;;19.80;51.40;;;;;;5010631;28;20251;-85
2023/05/31 05:07:26;;;;;;;28.00;6.50;;;19.80;51.40;;;;;;5010365;28;20237;-84
2023/05/31 05:09:53;;;;;;;24.67;6.70;;;19.80;52.00;;;;;;5010703;28;20579;-84
2023/05/31 05:12:20;;;;;;;18.57;5.83;;;19.80;51.40;;;;;;5011510;28;20612;-84
2023/05/31 05:14:47;;;;;;;30.77;6.83;;;19.80;51.50;;;;;;5009287;28;20552;-84
2023/05/31 05:17:14;;;;;;;37.17;7.23;;;19.80;51.50;;;;;;5008826;28;20228;-85
2023/05/31 05:19:41;;;;;;;28.53;6.80;;;19.80;51.50;;;;;;5008144;28;20222;-84
2023/05/31 05:22:09;;;;;;;29.20;6.87;;;19.80;51.50;;;;;;5008657;28;20565;-84
2023/05/31 05:24:37;;;;;;;32.83;6.87;;;19.80;51.60;;;;;;5008992;28;20205;-85
2023/05/31 05:27:04;;;;;;;42.60;7.90;;;19.80;51.60;;;;;;5008840;28;20197;-84
2023/05/31 05:29:31;;;;;;;34.93;7.20;;;19.80;51.70;;;;;;5008923;28;20212;-84
2023/05/31 05:31:58;;;;;;;41.97;8.03;;;19.80;51.60;;;;;;5006001;28;20276;-84
2023/05/31 05:34:25;;;;;;;38.97;7.80;;;19.80;51.60;;;;;;5007929;28;20258;-87
2023/05/31 05:36:52;;;;;;;44.00;8.10;;;19.70;51.50;;;;;;5008566;28;20881;-85
2023/05/31 05:39:19;;;;;;;36.03;7.67;;;19.80;51.70;;;;;;5008747;28;20232;-85
2023/05/31 05:41:47;;;;;;;40.73;8.00;;;19.80;51.70;;;;;;5006558;28;20209;-86
2023/05/31 05:44:15;;;;;;;40.50;8.07;;;19.80;51.70;;;;;;5006998;28;20284;-85
2023/05/31 05:46:42;;;;;;;35.57;7.53;;;19.80;51.70;;;;;;4989364;28;20206;-87
2023/05/31 05:49:08;;;;;;;50.67;8.63;;;19.80;52.40;;;;;;4994192;28;20201;-85
2023/05/31 05:51:36;;;;;;;39.53;7.67;;;19.80;51.70;;;;;;5009642;28;20292;-86
2023/05/31 05:54:03;;;;;;;46.10;8.20;;;19.80;51.80;;;;;;5008522;28;20201;-84
2023/05/31 05:56:33;;;;;;;39.47;7.80;;;19.80;51.80;;;;;;5008850;28;20292;-87
2023/05/31 05:59:02;;;;;;;30.53;7.40;;;19.80;52.00;;;;;;5010403;28;20200;-87
2023/05/31 06:01:29;;;;;;;24.10;7.00;;;19.80;52.00;;;;;;5010020;28;20241;-87
2023/05/31 06:03:56;;;;;;;40.97;8.47;;;19.80;51.90;;;;;;5006611;28;20616;-86
2023/05/31 06:06:23;;;;;;;20.03;5.93;;;19.80;51.90;;;;;;5005768;28;20309;-87
2023/05/31 06:08:54;;;;;;;23.87;6.43;;;19.80;51.90;;;;;;5008376;28;20218;-88
2023/05/31 06:11:22;;;;;;;29.07;6.97;;;19.80;51.80;;;;;;5005706;28;20201;-87
2023/05/31 06:13:56;;;;;;;25.27;6.50;;;19.90;51.90;;;;;;5010081;28;20232;-87
2023/05/31 06:16:27;;;;;;;37.77;7.80;;;19.90;52.00;;;;;;5013739;28;20230;-86
2023/05/31 06:18:55;;;;;;;26.50;6.70;;;19.90;51.90;;;;;;5011718;28;20741;-86
2023/05/31 06:21:25;;;;;;;35.13;7.40;;;19.90;51.90;;;;;;5011426;28;20225;-86
2023/05/31 06:23:53;;;;;;;27.93;6.93;;;19.90;51.90;;;;;;5010236;28;20572;-87
2023/05/31 06:26:22;;;;;;;34.43;7.73;;;19.90;51.90;;;;;;5009271;28;20563;-87
2023/05/31 06:28:49;;;;;;;34.27;7.93;;;19.90;52.00;;;;;;5007135;28;20675;-87
2023/05/31 06:31:16;;;;;;;49.43;9.07;;;19.90;51.90;;;;;;4994844;28;20201;-87
2023/05/31 06:33:44;;;;;;;48.03;8.43;;;19.90;51.90;;;;;;5003872;28;20871;-87
2023/05/31 06:36:11;;;;;;;40.80;8.23;;;19.90;51.90;;;;;;5009218;28;20205;-87
2023/05/31 06:38:39;;;;;;;28.77;7.13;;;19.90;52.00;;;;;;5013513;28;20202;-87
2023/05/31 06:41:06;;;;;;;35.40;8.47;;;20.00;52.00;;;;;;5013576;28;20245;-86
2023/05/31 06:43:33;;;;;;;42.77;8.50;;;19.90;51.90;;;;;;5012313;28;20216;-88
2023/05/31 06:46:00;;;;;;;38.03;8.17;;;20.00;52.00;;;;;;5012980;28;20296;-87
2023/05/31 06:48:27;;;;;;;43.37;8.57;;;19.90;52.00;;;;;;5010892;28;20194;-88
2023/05/31 06:51:00;;;;;;;37.20;8.23;;;20.00;52.10;;;;;;5011533;28;20269;-87
2023/05/31 06:53:27;;;;;;;46.07;9.23;;;20.00;52.10;;;;;;5008212;28;20297;-91
2023/05/31 06:55:54;;;;;;;38.20;8.57;;;20.00;52.10;;;;;;5010168;28;20571;-87
2023/05/31 06:58:21;;;;;;;29.57;8.40;;;20.10;52.30;;;;;;5013222;28;20244;-89
2023/05/31 07:00:48;;;;;;;33.63;8.43;;;20.00;52.20;;;;;;5017832;28;20342;-88
2023/05/31 07:03:17;;;;;;;31.70;8.13;;;20.00;52.20;;;;;;5013455;28;20225;-87
2023/05/31 07:05:44;;;;;;;32.53;8.03;;;20.10;52.30;;;;;;5011136;28;20827;-87
2023/05/31 07:08:14;;;;;;;35.13;8.33;;;20.10;52.20;;;;;;5011845;28;20245;-87
2023/05/31 07:10:41;;;;;;;28.13;6.83;;;20.10;52.20;;;;;;5012389;28;20530;-87
2023/05/31 07:13:08;;;;;;;22.13;7.17;;;20.10;52.20;;;;;;5014104;28;20305;-87
2023/05/31 07:15:35;;;;;;;33.60;7.77;;;20.10;52.10;;;;;;5010324;28;20614;-87
2023/05/31 07:18:05;;;;;;;34.87;8.10;;;20.10;52.10;;;;;;5014126;28;20198;-87
2023/05/31 07:20:32;;;;;;;19.23;7.03;;;20.10;52.20;;;;;;5012001;28;20253;-87
2023/05/31 07:22:59;;;;;;;41.97;8.40;;;20.10;52.10;;;;;;5009277;28;20635;-87
2023/05/31 07:25:28;;;;;;;40.33;8.27;;;20.20;52.30;;;;;;5011359;28;20602;-87
2023/05/31 07:27:59;;;;;;;30.77;7.80;;;20.20;52.30;;;;;;5015332;28;20211;-87
2023/05/31 07:30:29;;;;;;;35.60;8.13;;;20.20;52.30;;;;;;5011035;28;20224;-86
2023/05/31 07:32:58;;;;;;;29.07;7.90;;;20.20;52.50;;;;;;5015681;28;20253;-87
2023/05/31 07:35:25;;;;;;;24.13;6.70;;;20.20;52.30;;;;;;5018205;28;20300;-87
2023/05/31 07:37:52;;;;;;;48.07;8.70;;;20.20;52.30;;;;;;5016688;28;20213;-87
2023/05/31 07:40:19;;;;;;;33.97;8.50;;;20.30;52.30;;;;;;5008816;28;20273;-87
2023/05/31 07:42:47;;;;;;;33.43;7.97;;;20.30;52.40;;;;;;5001665;28;20249;-87
2023/05/31 07:45:16;;;;;;;20.97;7.00;;;20.30;52.40;;;;;;5003702;28;20236;-87
2023/05/31 07:47:45;;;;;;;23.20;7.13;;;20.30;52.40;;;;;;5017954;28;20202;-87
2023/05/31 07:50:12;;;;;;;19.77;7.10;;;20.30;52.30;;;;;;5014577;28;20214;-87
2023/05/31 07:52:39;;;;;;;19.40;7.00;;;20.30;52.30;;;;;;5020948;28;20225;-87
2023/05/31 07:55:08;;;;;;;30.97;7.67;;;20.40;52.40;;;;;;5021266;28;20237;-87
2023/05/31 07:57:35;;;;;;;33.57;7.77;;;20.40;52.50;;;;;;5013085;28;20239;-87
2023/05/31 08:00:07;;;;;;;32.67;8.10;;;20.40;52.50;;;;;;5012113;28;20263;-87
2023/05/31 08:02:36;;;;;;;33.17;7.60;;;20.40;52.50;;;;;;5014221;28;20217;-87
2023/05/31 08:05:04;;;;;;;34.17;7.47;;;20.40;52.50;;;;;;5011333;28;20309;-87
2023/05/31 08:07:31;;;;;;;29.30;7.50;;;20.40;52.50;;;;;;5011873;28;20577;-87
2023/05/31 08:10:05;;;;;;;46.60;8.77;;;20.50;52.50;;;;;;5014962;28;20225;-87
2023/05/31 08:12:32;;;;;;;32.07;7.23;;;20.50;52.60;;;;;;5006044;28;20217;-87
2023/05/31 08:14:58;;;;;;;28.83;7.47;;;20.50;52.50;;;;;;4998730;28;20301;-87
2023/05/31 08:17:27;;;;;;;27.43;7.20;;;20.50;52.60;;;;;;4995605;28;20572;-87
2023/05/31 08:19:56;;;;;;;25.43;7.27;;;20.50;52.60;;;;;;5012880;28;20197;-87
2023/05/31 08:22:23;;;;;;;21.73;6.47;;;20.50;52.60;;;;;;5013960;28;20229;-87
2023/05/31 08:24:50;;;;;;;30.80;8.00;;;20.60;52.70;;;;;;5007280;28;20635;-87
2023/05/31 08:27:18;;;;;;;28.83;7.53;;;20.60;52.70;;;;;;5020157;28;20212;-87
2023/05/31 08:29:47;;;;;;;30.17;7.60;;;20.60;52.70;;;;;;5013965;28;20209;-87
2023/05/31 08:32:14;;;;;;;28.03;7.27;;;20.70;52.80;;;;;;5012441;28;20205;-87
2023/05/31 08:34:45;;;;;;;19.13;6.57;;;20.70;52.80;;;;;;5011838;28;20238;-87
2023/05/31 08:37:12;;;;;;;29.97;7.53;;;20.70;52.80;;;;;;5005544;28;20209;-87
2023/05/31 08:39:41;;;;;;;17.80;6.67;;;20.70;52.80;;;;;;5015183;28;20215;-86
2023/05/31 08:42:15;;;;;;;28.07;7.60;;;20.80;52.90;;;;;;5019241;28;20225;-87
2023/05/31 08:44:49;;;;;;;28.33;9.40;;;20.80;53.00;;;;;;5013796;28;20274;-87
2023/05/31 08:47:37;;;;;;;30.57;10.23;;;20.80;53.40;;;;;;5014628;28;20207;-87
2023/05/31 08:50:06;;;;;;;33.30;10.27;;;20.80;53.80;;;;;;5008232;28;20239;-86
2023/05/31 08:52:34;;;;;;;42.23;10.77;;;20.90;53.40;;;;;;5009737;28;20265;-86
2023/05/31 08:55:03;;;;;;;38.80;10.63;;;20.90;53.40;;;;;;4998349;28;20199;-87
2023/05/31 08:57:31;;;;;;;39.27;9.40;;;20.90;53.40;;;;;;5012469;28;20251;-86
2023/05/31 08:59:59;;;;;;;35.27;9.57;;;20.90;53.40;;;;;;5010810;28;20202;-86
2023/05/31 09:02:26;;;;;;;33.93;8.70;;;21.00;53.40;;;;;;4993534;28;20389;-86
2023/05/31 09:04:53;;;;;;;52.10;9.63;;;21.00;53.40;;;;;;4993561;28;20221;-86
2023/05/31 09:07:21;;;;;;;29.13;7.87;;;21.10;53.50;;;;;;5004181;28;20663;-86
2023/05/31 09:09:49;;;;;;;35.90;8.83;;;21.10;53.50;;;;;;5012470;28;20189;-86
2023/05/31 09:12:16;;;;;;;30.00;8.10;;;21.20;53.70;;;;;;5009077;28;20209;-86
2023/05/31 09:14:43;;;;;;;41.00;9.33;;;21.20;53.60;;;;;;5008077;28;20231;-86
2023/05/31 09:17:14;;;;;;;38.27;8.67;;;21.20;53.60;;;;;;5011075;28;20640;-87
2023/05/31 09:19:42;;;;;;;44.33;8.97;;;21.30;53.70;;;;;;5012242;28;20274;-87
2023/05/31 09:22:16;;;;;;;39.40;8.23;;;21.30;53.70;;;;;;5013713;28;20229;-86
2023/05/31 09:24:51;;;;;;;31.53;7.97;;;21.40;53.80;;;;;;5011077;28;20189;-87
2023/05/31 09:27:22;;;;;;;30.80;7.77;;;21.40;53.80;;;;;;5007261;28;20245;-87
2023/05/31 09:29:56;;;;;;;25.87;7.40;;;21.40;54.40;;;;;;5011253;28;20192;-87
2023/05/31 09:32:23;;;;;;;36.03;8.10;;;21.50;53.80;;;;;;5011469;28;20201;-87
2023/05/31 09:34:50;;;;;;;35.53;8.37;;;21.50;53.70;;;;;;5010265;28;20222;-86
2023/05/31 09:37:26;;;;;;;35.23;8.03;;;21.50;53.70;;;;;;5011764;28;20200;-87
2023/05/31 09:40:03;;;;;;;29.27;7.43;;;21.60;53.90;;;;;;5010754;28;20279;-87
2023/05/31 09:42:30;;;;;;;23.77;6.83;;;21.60;53.90;;;;;;5012396;28;20758;-86
2023/05/31 09:45:01;;;;;;;34.30;7.43;;;21.70;53.80;;;;;;5008720;28;20197;-86
2023/05/31 09:47:29;;;;;;;34.23;7.60;;;21.70;53.80;;;;;;5009506;28;20286;-86
2023/05/31 09:49:57;;;;;;;34.93;8.13;;;21.70;53.80;;;;;;5007697;28;20206;-86
2023/05/31 09:52:28;;;;;;;29.93;7.63;;;21.80;53.90;;;;;;5007594;28;20298;-86
2023/05/31 09:54:57;;;;;;;38.43;8.10;;;21.80;53.90;;;;;;5008716;28;20198;-86
2023/05/31 09:57:33;;;;;;;39.83;8.40;;;21.90;54.00;;;;;;5010504;28;20271;-86
2023/05/31 10:00:00;;;;;;;40.97;8.37;;;21.90;54.00;;;;;;5009258;28;20196;-86
2023/05/31 10:02:28;;;;;;;35.30;7.87;;;22.00;54.00;;;;;;5006782;28;20217;-86
2023/05/31 10:05:02;;;;;;;37.90;7.83;;;22.00;54.00;;;;;;5002991;28;20684;-86
2023/05/31 10:07:32;;;;;;;28.23;7.27;;;22.00;54.10;;;;;;5010490;28;20351;-86
2023/05/31 10:09:59;;;;;;;32.47;7.37;;;22.00;54.00;;;;;;5012113;28;20652;-86
2023/05/31 10:12:28;;;;;;;30.87;6.87;;;22.10;54.00;;;;;;5012492;28;20200;-86
2023/05/31 10:15:01;;;;;;;35.60;7.47;;;22.10;54.10;;;;;;5009101;28;20254;-87
2023/05/31 10:17:30;;;;;;;51.87;8.77;;;22.10;54.10;;;;;;5012000;28;20196;-87
2023/05/31 10:20:01;;;;;;;29.97;7.27;;;22.20;54.10;;;;;;5011505;28;20272;-87
2023/05/31 10:22:31;;;;;;;39.33;8.17;;;22.20;54.10;;;;;;5011414;28;20217;-86
2023/05/31 10:25:04;;;;;;;53.17;10.90;;;22.30;54.20;;;;;;5011453;28;20193;-87
2023/05/31 10:27:38;;;;;;;47.80;9.50;;;22.30;54.70;;;;;;5009976;28;20477;-87
2023/05/31 10:30:11;;;;;;;30.47;7.77;;;22.30;54.50;;;;;;5015947;28;20189;-87
2023/05/31 10:32:43;;;;;;;33.87;8.80;;;22.40;54.60;;;;;;5013787;28;20210;-86
2023/05/31 10:35:10;;;;;;;40.70;9.17;;;22.50;54.50;;;;;;5012795;28;20201;-87
2023/05/31 10:37:39;;;;;;;36.20;8.50;;;22.50;54.40;;;;;;5013129;28;20526;-87
2023/05/31 10:40:13;;;;;;;31.80;7.23;;;22.50;54.40;;;;;;5005967;28;20563;-87
2023/05/31 10:42:47;;;;;;;20.77;6.90;;;22.60;54.60;;;;;;5014601;28;20596;-87
2023/05/31 10:45:23;;;;;;;26.00;7.23;;;22.60;54.60;;;;;;5014312;28;20204;-87
2023/05/31 10:47:57;;;;;;;22.00;7.20;;;22.60;54.60;;;;;;5014887;28;20215;-86
2023/05/31 10:50:24;;;;;;;21.87;7.43;;;22.70;54.60;;;;;;5015673;28;20190;-86
2023/05/31 10:52:53;;;;;;;19.80;6.80;;;22.70;54.50;;;;;;5012259;28;20209;-87
2023/05/31 10:55:22;;;;;;;28.93;7.40;;;22.70;54.50;;;;;;5013252;28;20271;-87
2023/05/31 10:57:55;;;;;;;31.50;7.87;;;22.80;54.60;;;;;;5012274;28;20227;-87
2023/05/31 11:00:25;;;;;;;26.13;7.17;;;22.80;54.60;;;;;;5012059;28;20275;-87
2023/05/31 11:02:54;;;;;;;32.03;8.40;;;22.90;54.60;;;;;;5010656;28;20233;-87
2023/05/31 11:05:22;;;;;;;31.20;7.63;;;22.90;54.60;;;;;;5010690;28;20282;-87
2023/05/31 11:07:50;;;;;;;31.23;7.60;;;23.00;54.60;;;;;;5012485;28;20700;-87
2023/05/31 11:10:28;;;;;;;33.73;7.83;;;23.00;54.60;;;;;;5012574;28;20742;-86
2023/05/31 11:12:58;;;;;;;34.23;8.20;;;23.10;54.80;;;;;;5013306;28;20318;-86
2023/05/31 11:15:42;;;;;;;53.10;9.70;;;23.10;54.70;;;;;;5011212;28;20245;-87
2023/05/31 11:18:21;;;;;;;32.93;7.80;;;23.10;54.80;;;;;;5019569;28;20197;-87
2023/05/31 11:20:48;;;;;;;37.37;8.03;;;23.20;55.40;;;;;;5020831;28;20208;-87
2023/05/31 11:23:28;;;;;;;27.90;7.43;;;23.20;54.60;;;;;;5016919;28;20251;-87
2023/05/31 11:26:15;;;;;;;28.57;7.83;;;23.20;54.80;;;;;;5017189;28;20205;-87
2023/05/31 11:29:00;;;;;;;34.10;8.07;;;23.30;54.80;;;;;;5007639;28;20689;-87
2023/05/31 11:32:01;;;;;;;32.43;7.83;;;23.30;54.80;;;;;;5005276;28;20685;-86
2023/05/31 11:34:33;;;;;;;31.57;7.53;;;23.40;54.90;;;;;;5001262;28;20574;-86
2023/05/31 11:37:02;;;;;;;44.13;8.53;;;23.40;54.70;;;;;;5007042;28;20221;-86
2023/05/31 11:39:30;;;;;;;28.37;7.47;;;23.50;54.80;;;;;;5009573;28;20210;-86
2023/05/31 11:41:58;;;;;;;36.03;8.43;;;23.50;54.80;;;;;;4992042;28;20669;-87
2023/05/31 11:44:30;;;;;;;42.97;8.57;;;23.50;54.80;;;;;;4992908;28;20206;-87
2023/05/31 11:47:10;;;;;;;36.60;8.07;;;23.50;54.90;;;;;;5004300;28;20749;-87
2023/05/31 11:49:37;;;;;;;33.90;7.77;;;23.50;54.90;;;;;;5012061;28;20201;-87
2023/05/31 11:52:05;;;;;;;32.57;7.67;;;23.60;54.80;;;;;;5011566;28;20208;-87
2023/05/31 11:54:35;;;;;;;31.47;7.27;;;23.60;54.80;;;;;;5011271;28;20936;-87
2023/05/31 11:57:03;;;;;;;25.77;7.07;;;23.70;54.90;;;;;;5011253;28;20201;-87
2023/05/31 11:59:33;;;;;;;26.47;7.20;;;23.70;54.90;;;;;;5010690;28;20198;-87
2023/05/31 12:02:02;;;;;;;23.87;7.10;;;23.70;54.90;;;;;;5011567;28;20224;-87
2023/05/31 12:04:36;;;;;;;30.97;8.40;;;23.80;55.00;;;;;;5011423;28;20661;-87
2023/05/31 12:07:05;;;;;;;30.43;7.47;;;23.80;55.00;;;;;;5011216;28;20241;-86
2023/05/31 12:09:33;;;;;;;29.10;7.60;;;23.90;55.00;;;;;;5011141;28;20571;-87
2023/05/31 12:12:02;;;;;;;27.17;7.83;;;23.90;55.00;;;;;;5012883;28;20202;-87
2023/05/31 12:14:29;;;;;;;26.63;6.93;;;23.90;55.00;;;;;;5013448;28;20229;-87
2023/05/31 12:16:56;;;;;;;39.43;8.87;;;24.00;55.00;;;;;;5011757;28;20210;-87
2023/05/31 12:19:24;;;;;;;34.97;8.00;;;24.00;55.00;;;;;;5011809;28;20228;-87
2023/05/31 12:21:53;;;;;;;37.13;7.63;;;24.10;55.10;;;;;;5012801;28;20229;-87
2023/05/31 12:24:20;;;;;;;38.83;12.10;;;24.10;55.10;;;;;;5008993;28;20198;-87
2023/05/31 12:26:50;;;;;;;37.23;11.20;;;24.10;55.10;;;;;;5014562;28;20208;-87
2023/05/31 12:29:18;;;;;;;38.43;11.03;;;24.10;55.10;;;;;;5015269;28;20212;-88
2023/05/31 12:31:46;;;;;;;37.73;9.97;;;24.20;55.20;;;;;;5011173;28;20197;-88
2023/05/31 12:34:14;;;;;;;27.30;8.57;;;24.20;55.20;;;;;;5011340;28;20737;-87
2023/05/31 12:36:45;;;;;;;48.57;10.20;;;24.30;55.30;;;;;;5008339;28;20201;-87
2023/05/31 12:39:16;;;;;;;32.73;9.03;;;24.30;55.30;;;;;;5001477;28;20206;-87
2023/05/31 12:41:44;;;;;;;27.83;7.83;;;24.30;55.30;;;;;;5001872;28;20225;-87
2023/05/31 12:44:15;;;;;;;50.47;10.17;;;24.40;55.30;;;;;;5000006;28;20190;-87
2023/05/31 12:46:44;;;;;;;41.33;8.77;;;24.40;55.30;;;;;;5001587;28;20919;-87